createdAt,value
2018-08-31T00:01:32.041Z,2.83
2018-08-31T00:06:15.790Z,2.70
2018-08-31T00:09:13.302Z,3.00
2018-08-31T00:12:56.355Z,3.12
2018-08-31T00:15:24.423Z,2.90
2018-08-31T00:17:52.472Z,2.80
2018-08-31T00:20:20.549Z,3.03
2018-08-31T00:22:48.578Z,3.40
2018-08-31T00:26:01.337Z,3.60
2018-08-31T00:29:56.664Z,2.98
2018-08-31T00:34:49.401Z,2.98
2018-08-31T00:38:36.308Z,2.80
2018-08-31T00:41:16.527Z,3.10
2018-08-31T00:44:59.825Z,2.85
2018-08-31T00:47:28.116Z,3.90
2018-08-31T00:49:56.462Z,3.20
2018-08-31T00:52:24.527Z,3.02
2018-08-31T00:54:52.601Z,2.80
2018-08-31T00:57:20.664Z,3.00
2018-08-31T00:59:48.720Z,2.80
2018-08-31T01:02:16.775Z,2.90
2018-08-31T01:04:44.831Z,2.80
2018-08-31T01:07:12.903Z,2.90
2018-08-31T01:09:40.975Z,3.20
2018-08-31T01:12:09.536Z,2.70
2018-08-31T01:14:37.593Z,3.40
2018-08-31T01:17:05.649Z,3.20
2018-08-31T01:19:33.999Z,2.70
2018-08-31T01:22:02.044Z,3.27
2018-08-31T01:24:30.108Z,3.00
2018-08-31T01:26:58.166Z,3.00
2018-08-31T01:29:26.228Z,3.20
2018-08-31T01:31:54.500Z,3.12
2018-08-31T01:34:22.664Z,3.00
2018-08-31T01:36:50.687Z,2.75
2018-08-31T01:39:18.756Z,3.17
2018-08-31T01:41:46.788Z,3.50
2018-08-31T01:44:14.995Z,3.40
2018-08-31T01:46:43.040Z,3.20
2018-08-31T01:49:11.108Z,2.92
2018-08-31T01:51:39.164Z,3.20
2018-08-31T01:54:07.242Z,2.80
2018-08-31T01:56:35.284Z,2.85
2018-08-31T01:59:03.332Z,2.90
2018-08-31T02:01:31.356Z,3.33
2018-08-31T02:04:01.799Z,3.00
2018-08-31T02:06:29.804Z,3.08
2018-08-31T02:09:03.354Z,2.70
2018-08-31T02:11:31.508Z,2.90
2018-08-31T02:13:59.537Z,3.70
2018-08-31T02:16:27.570Z,3.10
2018-08-31T02:18:55.684Z,3.27
2018-08-31T02:21:23.708Z,3.10
2018-08-31T02:23:51.779Z,3.02
2018-08-31T02:26:19.836Z,3.10
2018-08-31T02:28:47.864Z,3.33
2018-08-31T02:31:15.908Z,2.95
2018-08-31T02:33:43.952Z,2.80
2018-08-31T02:36:11.992Z,3.10
2018-08-31T02:38:40.091Z,3.60
2018-08-31T02:41:08.100Z,3.15
2018-08-31T02:43:36.195Z,3.35
2018-08-31T02:46:04.399Z,3.17
2018-08-31T02:48:32.504Z,3.72
2018-08-31T02:51:00.528Z,3.33
2018-08-31T02:53:28.861Z,3.90
2018-08-31T02:55:56.925Z,4.00
2018-08-31T02:58:25.012Z,3.50
2018-08-31T03:00:53.123Z,4.30
2018-08-31T03:03:21.170Z,3.80
2018-08-31T03:05:49.271Z,3.85
2018-08-31T03:08:17.347Z,4.15
2018-08-31T03:10:45.433Z,4.42
2018-08-31T03:13:13.489Z,4.10
2018-08-31T03:15:41.536Z,4.40
2018-08-31T03:18:09.596Z,4.10
2018-08-31T03:20:37.675Z,4.70
2018-08-31T03:23:05.693Z,4.70
2018-08-31T03:25:33.766Z,4.00
2018-08-31T03:28:01.808Z,4.60
2018-08-31T03:30:29.923Z,4.10
2018-08-31T03:32:58.020Z,4.20
2018-08-31T03:35:26.099Z,4.62
2018-08-31T03:37:54.164Z,4.30
2018-08-31T03:40:22.188Z,4.03
2018-08-31T03:42:50.312Z,4.27
2018-08-31T03:45:18.523Z,3.60
2018-08-31T03:47:46.796Z,4.40
2018-08-31T03:50:14.836Z,3.98
2018-08-31T03:52:43.032Z,3.90
2018-08-31T03:55:11.393Z,4.00
2018-08-31T03:57:39.396Z,4.22
2018-08-31T04:00:08.517Z,4.83
2018-08-31T04:02:36.651Z,4.15
2018-08-31T04:05:04.944Z,4.00
2018-08-31T04:07:33.012Z,4.80
2018-08-31T04:10:01.073Z,4.17
2018-08-31T04:12:29.107Z,4.22
2018-08-31T04:14:57.288Z,4.10
2018-08-31T04:17:25.452Z,4.20
2018-08-31T04:19:53.480Z,4.53
2018-08-31T04:22:21.547Z,3.70
2018-08-31T04:24:49.588Z,4.40
2018-08-31T04:27:17.642Z,4.08
2018-08-31T04:29:45.716Z,4.58
2018-08-31T04:32:13.905Z,5.30
2018-08-31T04:34:41.984Z,4.53
2018-08-31T04:37:10.040Z,5.25
2018-08-31T04:39:38.090Z,4.70
2018-08-31T04:42:06.445Z,4.00
2018-08-31T04:44:34.468Z,4.10
2018-08-31T04:47:02.672Z,4.60
2018-08-31T04:49:30.785Z,4.83
2018-08-31T04:51:58.872Z,5.70
2018-08-31T04:54:26.900Z,4.95
2018-08-31T04:56:54.976Z,6.25
2018-08-31T04:59:23.039Z,5.10
2018-08-31T05:01:51.112Z,4.62
2018-08-31T05:04:19.183Z,4.40
2018-08-31T05:06:47.245Z,4.53
2018-08-31T05:09:15.315Z,4.90
2018-08-31T05:11:43.620Z,6.37
2018-08-31T05:14:11.660Z,4.97
2018-08-31T05:16:39.768Z,5.50
2018-08-31T05:19:07.883Z,5.55
2018-08-31T05:21:35.935Z,5.40
2018-08-31T05:24:03.984Z,5.70
2018-08-31T05:26:32.053Z,4.80
2018-08-31T05:29:00.116Z,5.70
2018-08-31T05:31:28.173Z,5.28
2018-08-31T05:33:56.200Z,5.70
2018-08-31T05:36:24.408Z,4.72
2018-08-31T05:38:52.444Z,6.00
2018-08-31T05:41:20.524Z,4.85
2018-08-31T05:43:48.611Z,5.30
2018-08-31T05:46:16.677Z,5.25
2018-08-31T05:48:44.707Z,5.00
2018-08-31T05:51:12.797Z,5.70
2018-08-31T05:53:40.958Z,5.05
2018-08-31T05:56:08.960Z,4.70
2018-08-31T05:58:37.032Z,5.17
2018-08-31T06:01:05.115Z,5.10
2018-08-31T06:03:33.153Z,5.58
2018-08-31T06:06:01.261Z,5.20
2018-08-31T06:08:29.317Z,5.25
2018-08-31T06:10:57.349Z,4.10
2018-08-31T06:13:25.408Z,4.95
2018-08-31T06:15:53.448Z,4.78
2018-08-31T06:18:21.505Z,4.20
2018-08-31T06:20:49.541Z,4.30
2018-08-31T06:23:17.592Z,4.30
2018-08-31T06:25:45.693Z,4.40
2018-08-31T06:28:13.734Z,4.67
2018-08-31T06:30:41.796Z,4.50
2018-08-31T06:33:09.832Z,4.40
2018-08-31T06:35:37.899Z,4.60
2018-08-31T06:38:05.956Z,3.85
2018-08-31T06:40:40.566Z,3.52
2018-08-31T06:43:08.596Z,3.47
2018-08-31T06:45:36.652Z,3.60
2018-08-31T06:48:04.751Z,3.60
2018-08-31T06:50:32.800Z,3.30
2018-08-31T06:53:00.841Z,3.95
2018-08-31T06:55:28.880Z,3.37
2018-08-31T06:57:56.965Z,3.45
2018-08-31T07:00:25.069Z,3.37
2018-08-31T07:02:53.104Z,3.50
2018-08-31T07:05:21.140Z,3.55
2018-08-31T07:07:49.212Z,2.85
2018-08-31T07:10:17.344Z,2.77
2018-08-31T07:12:45.384Z,2.60
2018-08-31T07:15:13.420Z,2.83
2018-08-31T07:17:41.472Z,2.20
2018-08-31T07:20:09.545Z,2.40
2018-08-31T07:22:37.612Z,2.40
2018-08-31T07:25:05.697Z,2.40
2018-08-31T07:27:33.737Z,2.65
2018-08-31T07:30:01.780Z,2.80
2018-08-31T07:32:29.899Z,2.27
2018-08-31T07:34:57.860Z,2.17
2018-08-31T07:37:25.981Z,2.40
2018-08-31T07:39:54.053Z,2.40
2018-08-31T07:42:22.103Z,2.50
2018-08-31T07:44:50.122Z,2.50
2018-08-31T07:47:18.189Z,2.50
2018-08-31T07:49:46.240Z,2.22
2018-08-31T07:52:14.291Z,2.25
2018-08-31T07:54:42.368Z,2.40
2018-08-31T07:57:10.424Z,2.45
2018-08-31T07:59:38.483Z,2.42
2018-08-31T08:02:06.547Z,2.30
2018-08-31T08:04:34.592Z,2.10
2018-08-31T08:07:02.630Z,2.10
2018-08-31T08:09:30.649Z,2.50
2018-08-31T08:11:58.703Z,2.70
2018-08-31T08:14:26.775Z,2.20
2018-08-31T08:16:54.793Z,2.50
2018-08-31T08:19:22.818Z,2.10
2018-08-31T08:21:50.865Z,2.50
2018-08-31T08:24:18.923Z,3.15
2018-08-31T08:26:47.012Z,2.60
2018-08-31T08:29:15.052Z,2.37
2018-08-31T08:31:43.091Z,2.20
2018-08-31T08:34:11.140Z,2.22
2018-08-31T08:36:39.166Z,2.52
2018-08-31T08:39:07.923Z,2.40
2018-08-31T08:41:35.963Z,1.90
2018-08-31T08:44:04.187Z,2.30
2018-08-31T08:46:32.220Z,2.40
2018-08-31T08:49:00.265Z,2.55
2018-08-31T08:51:28.284Z,2.25
2018-08-31T08:53:56.344Z,2.40
2018-08-31T08:56:24.408Z,2.77
2018-08-31T08:58:52.429Z,2.00
2018-08-31T09:01:20.482Z,2.47
2018-08-31T09:03:48.497Z,2.40
2018-08-31T09:06:16.572Z,2.60
2018-08-31T09:08:44.646Z,2.37
2018-08-31T09:11:12.951Z,2.75
2018-08-31T09:13:41.030Z,2.20
2018-08-31T09:16:09.060Z,2.30
2018-08-31T09:18:37.112Z,2.10
2018-08-31T09:21:05.284Z,2.50
2018-08-31T09:23:33.604Z,2.50
2018-08-31T09:26:04.124Z,2.40
2018-08-31T09:28:32.164Z,2.37
2018-08-31T09:31:00.191Z,1.87
2018-08-31T09:33:28.260Z,2.80
2018-08-31T09:35:56.387Z,2.40
2018-08-31T09:38:24.524Z,2.62
2018-08-31T09:40:52.544Z,2.40
2018-08-31T09:43:20.597Z,2.30
2018-08-31T09:45:48.644Z,2.10
2018-08-31T09:48:16.688Z,2.60
2018-08-31T09:50:44.736Z,2.30
2018-08-31T09:53:12.792Z,2.20
2018-08-31T09:55:40.835Z,2.45
2018-08-31T09:58:08.923Z,2.70
2018-08-31T10:00:42.504Z,2.80
2018-08-31T10:03:15.972Z,2.37
2018-08-31T10:05:44.021Z,2.50
2018-08-31T10:08:12.101Z,2.50
2018-08-31T10:10:40.164Z,2.55
2018-08-31T10:13:08.200Z,2.70
2018-08-31T10:15:36.256Z,2.45
2018-08-31T10:18:04.281Z,2.80
2018-08-31T10:20:32.308Z,2.52
2018-08-31T10:23:00.345Z,2.60
2018-08-31T10:25:28.384Z,2.25
2018-08-31T10:27:56.437Z,2.45
2018-08-31T10:30:24.480Z,3.00
2018-08-31T10:32:52.520Z,2.30
2018-08-31T10:35:20.623Z,2.30
2018-08-31T10:37:48.665Z,2.22
2018-08-31T10:40:16.786Z,2.33
2018-08-31T10:42:44.788Z,2.60
2018-08-31T10:45:12.861Z,2.33
2018-08-31T10:47:40.877Z,2.37
2018-08-31T10:50:09.513Z,2.60
2018-08-31T10:52:37.575Z,2.50
2018-08-31T10:55:05.832Z,2.40
2018-08-31T10:57:33.878Z,2.80
2018-08-31T11:00:01.916Z,2.30
2018-08-31T11:02:29.971Z,2.25
2018-08-31T11:04:58.076Z,2.40
2018-08-31T11:07:26.123Z,2.62
2018-08-31T11:09:54.176Z,2.50
2018-08-31T11:12:22.224Z,2.50
2018-08-31T11:14:50.326Z,2.30
2018-08-31T11:17:18.328Z,3.02
2018-08-31T11:19:46.370Z,2.40
2018-08-31T11:22:14.615Z,2.80
2018-08-31T11:24:42.700Z,2.70
2018-08-31T11:27:10.719Z,2.40
2018-08-31T11:29:38.772Z,3.27
2018-08-31T11:32:06.803Z,2.87
2018-08-31T11:34:34.856Z,3.00
2018-08-31T11:37:02.868Z,2.83
2018-08-31T11:39:30.922Z,2.80
2018-08-31T11:41:58.947Z,2.52
2018-08-31T11:44:26.996Z,2.77
2018-08-31T11:46:55.061Z,3.02
2018-08-31T11:49:23.081Z,2.70
2018-08-31T11:51:51.182Z,2.70
2018-08-31T11:54:19.205Z,2.70
2018-08-31T11:56:47.251Z,2.70
2018-08-31T11:59:15.277Z,2.60
2018-08-31T12:01:43.385Z,3.10
2018-08-31T12:04:11.431Z,3.30
2018-08-31T12:06:39.487Z,2.95
2018-08-31T12:09:08.563Z,3.50
2018-08-31T12:11:36.777Z,2.80
2018-08-31T12:14:04.924Z,2.90
2018-08-31T12:16:33.005Z,2.60
2018-08-31T12:19:01.060Z,2.50
2018-08-31T12:21:29.106Z,2.60
2018-08-31T12:23:57.173Z,2.87
2018-08-31T12:26:25.221Z,2.60
2018-08-31T12:28:53.353Z,2.30
2018-08-31T12:31:21.437Z,2.60
2018-08-31T12:33:49.489Z,2.42
2018-08-31T12:36:17.777Z,2.37
2018-08-31T12:38:46.037Z,2.50
2018-08-31T12:41:14.097Z,3.12
2018-08-31T12:43:42.201Z,3.10
2018-08-31T12:46:10.187Z,2.67
2018-08-31T12:48:38.219Z,2.70
2018-08-31T12:51:06.290Z,2.67
2018-08-31T12:53:34.372Z,2.90
2018-08-31T12:56:02.428Z,2.72
2018-08-31T12:58:30.485Z,2.62
2018-08-31T13:00:58.491Z,3.02
2018-08-31T13:03:26.528Z,2.70
2018-08-31T13:05:54.587Z,2.72
2018-08-31T13:08:22.780Z,3.20
2018-08-31T13:10:50.840Z,3.00
2018-08-31T13:13:18.867Z,3.15
2018-08-31T13:15:46.897Z,2.90
2018-08-31T13:18:14.973Z,3.80
2018-08-31T13:20:43.044Z,3.40
2018-08-31T13:23:11.073Z,3.15
2018-08-31T13:25:39.108Z,3.20
2018-08-31T13:28:07.136Z,3.00
2018-08-31T13:30:35.292Z,3.37
2018-08-31T13:33:03.334Z,3.08
2018-08-31T13:35:31.448Z,3.37
2018-08-31T13:37:59.505Z,3.45
2018-08-31T13:40:27.465Z,3.50
2018-08-31T13:42:55.520Z,2.85
2018-08-31T13:45:23.545Z,3.80
2018-08-31T13:47:51.595Z,3.50
2018-08-31T13:50:19.637Z,2.80
2018-08-31T13:52:47.677Z,3.12
2018-08-31T13:55:15.887Z,3.17
2018-08-31T13:57:43.947Z,3.20
2018-08-31T14:00:12.004Z,2.77
2018-08-31T14:02:40.078Z,2.70
2018-08-31T14:05:08.160Z,2.90
2018-08-31T14:07:36.204Z,3.20
2018-08-31T14:10:04.707Z,3.50
2018-08-31T14:12:32.832Z,3.10
2018-08-31T14:15:00.801Z,2.90
2018-08-31T14:17:28.878Z,3.10
2018-08-31T14:19:56.915Z,3.20
2018-08-31T14:22:24.936Z,3.10
2018-08-31T14:24:53.052Z,3.52
2018-08-31T14:27:21.216Z,3.12
2018-08-31T14:29:49.415Z,2.87
2018-08-31T14:32:17.317Z,3.23
2018-08-31T14:34:45.345Z,3.10
2018-08-31T14:37:13.452Z,3.30
2018-08-31T14:39:41.496Z,3.12
2018-08-31T14:42:09.537Z,3.15
2018-08-31T14:44:37.585Z,3.10
2018-08-31T14:47:05.616Z,2.80
2018-08-31T14:49:33.815Z,3.00
2018-08-31T14:52:01.756Z,2.70
2018-08-31T14:54:30.043Z,3.37
2018-08-31T14:56:58.103Z,3.52
2018-08-31T14:59:26.129Z,3.47
2018-08-31T15:01:54.149Z,3.50
2018-08-31T15:04:22.186Z,3.50
2018-08-31T15:06:50.272Z,3.80
2018-08-31T15:09:18.384Z,3.85
2018-08-31T15:11:46.400Z,3.30
2018-08-31T15:14:14.471Z,3.67
2018-08-31T15:16:42.520Z,3.60
2018-08-31T15:19:10.559Z,3.30
2018-08-31T15:21:38.599Z,3.30
2018-08-31T15:24:06.652Z,3.30
2018-08-31T15:26:34.716Z,3.37
2018-08-31T15:29:02.778Z,3.58
2018-08-31T15:31:30.840Z,3.60
2018-08-31T15:33:58.849Z,3.60
2018-08-31T15:36:26.913Z,3.17
2018-08-31T15:38:54.949Z,3.67
2018-08-31T15:41:22.980Z,3.50
2018-08-31T15:43:51.047Z,3.50
2018-08-31T15:46:19.123Z,3.87
2018-08-31T15:48:47.231Z,3.37
2018-08-31T15:51:15.324Z,4.03
2018-08-31T15:53:43.352Z,3.10
2018-08-31T15:56:11.474Z,3.70
2018-08-31T15:58:39.460Z,3.50
2018-08-31T16:01:07.505Z,3.50
2018-08-31T16:03:35.541Z,3.52
2018-08-31T16:06:03.577Z,3.90
2018-08-31T16:08:31.643Z,4.10
2018-08-31T16:10:59.732Z,3.55
2018-08-31T16:13:27.799Z,3.60
2018-08-31T16:15:55.844Z,3.27
2018-08-31T16:18:23.932Z,3.67
2018-08-31T16:20:52.044Z,3.77
2018-08-31T16:23:20.080Z,3.87
2018-08-31T16:25:48.152Z,3.67
2018-08-31T16:28:16.199Z,3.80
2018-08-31T16:30:44.219Z,3.22
2018-08-31T16:33:12.292Z,3.37
2018-08-31T16:35:40.372Z,3.42
2018-08-31T16:38:08.417Z,3.70
2018-08-31T16:40:36.476Z,3.60
2018-08-31T16:43:04.513Z,3.63
2018-08-31T16:45:32.539Z,3.00
2018-08-31T16:48:00.607Z,3.20
2018-08-31T16:50:28.640Z,3.40
2018-08-31T16:52:56.684Z,3.60
2018-08-31T16:55:24.760Z,3.30
2018-08-31T16:57:52.811Z,3.02
2018-08-31T17:00:20.875Z,3.00
2018-08-31T17:02:48.945Z,3.43
2018-08-31T17:05:17.000Z,2.90
2018-08-31T17:07:45.098Z,3.25
2018-08-31T17:10:13.180Z,3.33
2018-08-31T17:12:41.251Z,3.50
2018-08-31T17:15:09.313Z,3.60
2018-08-31T17:17:37.372Z,3.70
2018-08-31T17:20:06.161Z,3.90
2018-08-31T17:22:34.200Z,3.52
2018-08-31T17:25:02.275Z,3.37
2018-08-31T17:27:35.677Z,3.60
2018-08-31T17:30:09.582Z,3.40
2018-08-31T17:32:43.002Z,3.40
2018-08-31T17:35:16.538Z,3.40
2018-08-31T17:37:44.597Z,3.20
2018-08-31T17:40:12.686Z,3.00
2018-08-31T17:42:41.530Z,3.60
2018-08-31T17:45:10.597Z,2.98
2018-08-31T17:47:38.667Z,3.22
2018-08-31T17:50:07.648Z,3.40
2018-08-31T17:52:35.706Z,3.20
2018-08-31T17:55:03.748Z,3.20
2018-08-31T17:57:31.783Z,3.65
2018-08-31T17:59:59.812Z,3.30
2018-08-31T18:02:27.849Z,3.80
2018-08-31T18:04:55.892Z,3.00
2018-08-31T18:07:23.961Z,3.35
2018-08-31T18:09:52.021Z,2.90
2018-08-31T18:12:20.052Z,3.70
2018-08-31T18:14:48.293Z,3.10
2018-08-31T18:17:16.351Z,3.30
2018-08-31T18:19:44.428Z,3.50
2018-08-31T18:22:12.492Z,4.10
2018-08-31T18:24:40.519Z,4.20
2018-08-31T18:27:08.571Z,3.60
2018-08-31T18:29:36.651Z,3.90
2018-08-31T18:32:04.840Z,3.87
2018-08-31T18:34:32.889Z,3.80
2018-08-31T18:37:00.945Z,3.75
2018-08-31T18:39:29.022Z,4.00
2018-08-31T18:41:57.082Z,4.10
2018-08-31T18:44:25.132Z,3.55
2018-08-31T18:46:53.292Z,3.83
2018-08-31T18:49:21.298Z,3.83
2018-08-31T18:51:49.360Z,3.83
2018-08-31T18:54:18.180Z,3.50
2018-08-31T18:56:46.248Z,3.98
2018-08-31T18:59:14.304Z,3.70
2018-08-31T19:01:42.369Z,3.70
2018-08-31T19:04:10.416Z,4.37
2018-08-31T19:06:38.459Z,3.85
2018-08-31T19:09:07.735Z,3.90
2018-08-31T19:11:35.812Z,3.80
2018-08-31T19:14:04.231Z,3.70
2018-08-31T19:16:32.328Z,4.15
2018-08-31T19:19:00.364Z,5.10
2018-08-31T19:21:28.415Z,4.30
2018-08-31T19:23:56.518Z,4.60
2018-08-31T19:26:24.560Z,4.50
2018-08-31T19:28:52.627Z,4.12
2018-08-31T19:31:20.767Z,4.65
2018-08-31T19:33:48.797Z,4.50
2018-08-31T19:36:16.884Z,3.90
2018-08-31T19:38:44.956Z,4.75
2018-08-31T19:41:13.076Z,4.40
2018-08-31T19:43:41.067Z,4.40
2018-08-31T19:46:09.107Z,4.42
2018-08-31T19:48:37.172Z,4.85
2018-08-31T19:51:05.247Z,4.58
2018-08-31T19:53:33.308Z,4.40
2018-08-31T19:56:01.376Z,4.30
2018-08-31T19:58:29.426Z,4.42
2018-08-31T20:00:57.472Z,4.65
2018-08-31T20:03:25.556Z,5.17
2018-08-31T20:05:53.640Z,4.50
2018-08-31T20:08:21.720Z,4.45
2018-08-31T20:10:49.793Z,4.55
2018-08-31T20:13:17.894Z,4.80
2018-08-31T20:15:45.916Z,4.40
2018-08-31T20:18:13.965Z,4.75
2018-08-31T20:20:42.035Z,4.42
2018-08-31T20:23:10.080Z,4.67
2018-08-31T20:25:38.153Z,5.40
2018-08-31T20:28:06.236Z,5.20
2018-08-31T20:30:34.292Z,5.50
2018-08-31T20:33:02.426Z,5.08
2018-08-31T20:35:30.480Z,5.20
2018-08-31T20:37:58.567Z,5.58
2018-08-31T20:40:26.624Z,5.83
2018-08-31T20:42:54.696Z,5.90
2018-08-31T20:45:22.760Z,6.15
2018-08-31T20:47:50.946Z,5.60
2018-08-31T20:50:19.011Z,5.55
2018-08-31T20:52:47.104Z,5.50
2018-08-31T20:55:15.283Z,5.60
2018-08-31T20:57:43.307Z,5.62
2018-08-31T21:00:11.359Z,5.42
2018-08-31T21:02:39.488Z,5.87
2018-08-31T21:05:07.544Z,5.67
2018-08-31T21:07:35.594Z,5.40
2018-08-31T21:10:03.659Z,5.92
2018-08-31T21:12:31.770Z,5.70
2018-08-31T21:14:59.848Z,6.33
2018-08-31T21:17:27.887Z,6.53
2018-08-31T21:19:55.941Z,6.97
2018-08-31T21:22:24.024Z,7.40
2018-08-31T21:24:52.085Z,7.30
2018-08-31T21:27:20.121Z,7.20
2018-08-31T21:29:48.172Z,7.90
2018-08-31T21:32:16.441Z,7.90
2018-08-31T21:34:44.449Z,7.97
2018-08-31T21:37:12.467Z,6.40
2018-08-31T21:39:40.496Z,5.70
2018-08-31T21:42:08.683Z,5.60
2018-08-31T21:44:36.600Z,6.70
2018-08-31T21:47:04.660Z,6.50
2018-08-31T21:49:32.741Z,5.50
2018-08-31T21:52:00.796Z,7.20
2018-08-31T21:54:28.855Z,6.50
2018-08-31T21:56:56.924Z,7.85
2018-08-31T21:59:24.933Z,6.90
2018-08-31T22:01:54.948Z,7.30
2018-08-31T22:04:23.517Z,6.30
2018-08-31T22:06:51.696Z,6.50
2018-08-31T22:09:19.738Z,6.83
2018-08-31T22:11:47.812Z,6.50
2018-08-31T22:14:15.828Z,6.90
2018-08-31T22:16:43.887Z,6.95
2018-08-31T22:19:11.971Z,6.30
2018-08-31T22:21:40.064Z,6.70
2018-08-31T22:24:08.092Z,5.50
2018-08-31T22:26:36.168Z,6.80
2018-08-31T22:29:04.274Z,7.67
2018-08-31T22:31:32.368Z,6.00
2018-08-31T22:34:00.420Z,7.15
2018-08-31T22:36:28.503Z,6.47
2018-08-31T22:38:56.580Z,6.80
2018-08-31T22:41:24.628Z,6.20
2018-08-31T22:43:53.283Z,6.20
2018-08-31T22:46:23.405Z,5.50
2018-08-31T22:48:52.094Z,5.80
2018-08-31T22:51:20.988Z,6.90
2018-08-31T22:53:49.282Z,6.00
2018-08-31T22:56:17.360Z,6.08
2018-08-31T22:58:45.509Z,6.30
2018-08-31T23:01:13.785Z,6.03
2018-08-31T23:03:41.848Z,6.30
2018-08-31T23:06:09.916Z,6.80
2018-08-31T23:08:37.987Z,6.80
2018-08-31T23:11:09.051Z,7.05
2018-08-31T23:13:38.267Z,7.12
2018-08-31T23:16:06.840Z,6.42
2018-08-31T23:18:34.888Z,6.47
2018-08-31T23:21:02.944Z,5.97
2018-08-31T23:23:36.377Z,6.12
2018-08-31T23:26:04.416Z,6.57
2018-08-31T23:28:32.452Z,6.60
2018-08-31T23:31:00.492Z,6.83
2018-08-31T23:33:28.539Z,7.00
2018-08-31T23:35:56.608Z,6.93
2018-08-31T23:38:24.631Z,5.65
2018-08-31T23:40:52.700Z,6.67
2018-08-31T23:43:20.744Z,6.50
2018-08-31T23:45:48.799Z,6.60
2018-08-31T23:48:17.214Z,6.95
2018-08-31T23:50:45.257Z,7.37
2018-08-31T23:53:13.848Z,7.10
2018-08-31T23:55:41.919Z,6.60
2018-08-31T23:58:09.958Z,6.50
